sensor_id;sensor_type;location;lat;lon;timestamp;pressure;altitude;pressure_sealevel;temperature;humidity
4972;BME280;2501;51.214;6.768;2022-09-13T00:01:29;100538.88;;;19.22;100.00
4972;BME280;2501;51.214;6.768;2022-09-13T00:04:01;100533.25;;;19.22;100.00
4972;BME280;2501;51.214;6.768;2022-09-13T00:06:29;100528.56;;;19.19;100.00
4972;BME280;2501;51.214;6.768;2022-09-13T00:08:57;100525.75;;;19.19;100.00
4972;BME280;2501;51.214;6.768;2022-09-13T00:11:28;100517.31;;;19.19;100.00
4972;BME280;2501;51.214;6.768;2022-09-13T00:13:57;100513.63;;;19.22;100.00
4972;BME280;2501;51.214;6.768;2022-09-13T00:16:27;100500.03;;;19.21;100.00
4972;BME280;2501;51.214;6.768;2022-09-13T00:18:56;100496.44;;;19.20;100.00
4972;BME280;2501;51.214;6.768;2022-09-13T00:21:27;100494.75;;;19.23;100.00
4972;BME280;2501;51.214;6.768;2022-09-13T00:23:56;100493.72;;;19.29;100.00
4972;BME280;2501;51.214;6.768;2022-09-13T00:26:26;100490.38;;;19.22;100.00
4972;BME280;2501;51.214;6.768;2022-09-13T00:28:56;100490.72;;;19.24;100.00
4972;BME280;2501;51.214;6.768;2022-09-13T00:31:26;100489.13;;;19.23;100.00
4972;BME280;2501;51.214;6.768;2022-09-13T00:33:57;100491.03;;;19.26;100.00
4972;BME280;2501;51.214;6.768;2022-09-13T00:36:28;100500.13;;;19.17;100.00
4972;BME280;2501;51.214;6.768;2022-09-13T00:38:58;100506.66;;;19.14;100.00
4972;BME280;2501;51.214;6.768;2022-09-13T00:41:26;100505.19;;;19.10;100.00
4972;BME280;2501;51.214;6.768;2022-09-13T00:43:56;100495.00;;;19.16;100.00
4972;BME280;2501;51.214;6.768;2022-09-13T00:46:31;100496.34;;;19.11;100.00
4972;BME280;2501;51.214;6.768;2022-09-13T00:49:11;100500.84;;;19.09;100.00
4972;BME280;2501;51.214;6.768;2022-09-13T00:51:47;100497.25;;;19.08;100.00
4972;BME280;2501;51.214;6.768;2022-09-13T00:54:18;100493.41;;;19.15;100.00
4972;BME280;2501;51.214;6.768;2022-09-13T00:56:51;100490.94;;;19.04;100.00
4972;BME280;2501;51.214;6.768;2022-09-13T00:59:24;100486.13;;;19.05;100.00
4972;BME280;2501;51.214;6.768;2022-09-13T01:01:54;100484.56;;;19.04;100.00
4972;BME280;2501;51.214;6.768;2022-09-13T01:04:25;100476.38;;;18.97;100.00
4972;BME280;2501;51.214;6.768;2022-09-13T01:07:02;100476.25;;;18.87;100.00
4972;BME280;2501;51.214;6.768;2022-09-13T01:09:35;100476.00;;;18.82;100.00
4972;BME280;2501;51.214;6.768;2022-09-13T01:12:07;100481.19;;;18.83;100.00
4972;BME280;2501;51.214;6.768;2022-09-13T01:14:41;100476.69;;;18.73;100.00
4972;BME280;2501;51.214;6.768;2022-09-13T01:17:10;100481.28;;;18.80;100.00
4972;BME280;2501;51.214;6.768;2022-09-13T01:19:39;100476.47;;;18.80;100.00
4972;BME280;2501;51.214;6.768;2022-09-13T01:25:37;100472.09;;;18.79;100.00
4972;BME280;2501;51.214;6.768;2022-09-13T01:28:18;100464.22;;;18.74;100.00
4972;BME280;2501;51.214;6.768;2022-09-13T01:30:58;100463.91;;;18.72;100.00
4972;BME280;2501;51.214;6.768;2022-09-13T01:33:44;100458.84;;;18.67;100.00
4972;BME280;2501;51.214;6.768;2022-09-13T01:36:32;100454.44;;;18.66;100.00
4972;BME280;2501;51.214;6.768;2022-09-13T01:39:07;100449.63;;;18.67;100.00
4972;BME280;2501;51.214;6.768;2022-09-13T01:41:48;100449.63;;;18.67;100.00
4972;BME280;2501;51.214;6.768;2022-09-13T01:44:29;100446.94;;;18.63;100.00
4972;BME280;2501;51.214;6.768;2022-09-13T01:47:11;100447.28;;;18.65;100.00
4972;BME280;2501;51.214;6.768;2022-09-13T01:49:45;100443.03;;;18.61;100.00
4972;BME280;2501;51.214;6.768;2022-09-13T01:52:20;100445.03;;;18.60;100.00
4972;BME280;2501;51.214;6.768;2022-09-13T01:54:56;100437.06;;;18.59;100.00
4972;BME280;2501;51.214;6.768;2022-09-13T01:57:31;100430.69;;;18.58;100.00
4972;BME280;2501;51.214;6.768;2022-09-13T02:00:08;100429.44;;;18.59;100.00
4972;BME280;2501;51.214;6.768;2022-09-13T02:02:45;100437.84;;;18.59;100.00
4972;BME280;2501;51.214;6.768;2022-09-13T02:05:19;100433.66;;;18.51;100.00
4972;BME280;2501;51.214;6.768;2022-09-13T02:07:54;100426.16;;;18.48;100.00
4972;BME280;2501;51.214;6.768;2022-09-13T02:10:27;100428.53;;;18.50;100.00
4972;BME280;2501;51.214;6.768;2022-09-13T02:12:57;100429.75;;;18.49;100.00
4972;BME280;2501;51.214;6.768;2022-09-13T02:15:28;100425.16;;;18.55;100.00
4972;BME280;2501;51.214;6.768;2022-09-13T02:18:09;100427.22;;;18.54;100.00
4972;BME280;2501;51.214;6.768;2022-09-13T02:20:43;100428.44;;;18.53;100.00
4972;BME280;2501;51.214;6.768;2022-09-13T02:23:15;100425.16;;;18.55;100.00
4972;BME280;2501;51.214;6.768;2022-09-13T02:25:48;100427.09;;;18.58;100.00
4972;BME280;2501;51.214;6.768;2022-09-13T02:28:21;100423.84;;;18.59;100.00
4972;BME280;2501;51.214;6.768;2022-09-13T02:30:52;100433.38;;;18.62;100.00
4972;BME280;2501;51.214;6.768;2022-09-13T02:33:25;100417.66;;;18.52;100.00
4972;BME280;2501;51.214;6.768;2022-09-13T02:36:00;100420.34;;;18.55;100.00
4972;BME280;2501;51.214;6.768;2022-09-13T02:38:34;100413.50;;;18.56;100.00
4972;BME280;2501;51.214;6.768;2022-09-13T02:41:08;100408.69;;;18.57;100.00
4972;BME280;2501;51.214;6.768;2022-09-13T02:43:42;100418.34;;;18.56;100.00
4972;BME280;2501;51.214;6.768;2022-09-13T02:46:23;100421.81;;;18.60;100.00
4972;BME280;2501;51.214;6.768;2022-09-13T02:49:05;100417.44;;;18.59;100.00
4972;BME280;2501;51.214;6.768;2022-09-13T02:51:42;100420.22;;;18.59;100.00
4972;BME280;2501;51.214;6.768;2022-09-13T02:54:22;100430.47;;;18.65;100.00
4972;BME280;2501;51.214;6.768;2022-09-13T02:56:55;100425.41;;;18.60;100.00
4972;BME280;2501;51.214;6.768;2022-09-13T02:59:26;100424.72;;;18.56;100.00
4972;BME280;2501;51.214;6.768;2022-09-13T03:01:58;100437.97;;;18.56;100.00
4972;BME280;2501;51.214;6.768;2022-09-13T03:04:32;100430.34;;;18.56;100.00
4972;BME280;2501;51.214;6.768;2022-09-13T03:07:01;100436.38;;;18.55;100.00
4972;BME280;2501;51.214;6.768;2022-09-13T03:09:30;100430.44;;;18.53;100.00
4972;BME280;2501;51.214;6.768;2022-09-13T03:14:58;100443.31;;;18.50;100.00
4972;BME280;2501;51.214;6.768;2022-09-13T03:17:40;100446.53;;;18.36;100.00
4972;BME280;2501;51.214;6.768;2022-09-13T03:20:22;100425.44;;;18.31;100.00
4972;BME280;2501;51.214;6.768;2022-09-13T03:23:13;100418.84;;;18.25;100.00
4972;BME280;2501;51.214;6.768;2022-09-13T03:26:13;100418.41;;;18.27;100.00
4972;BME280;2501;51.214;6.768;2022-09-13T03:28:52;100417.94;;;18.28;100.00
4972;BME280;2501;51.214;6.768;2022-09-13T03:31:28;100414.31;;;18.15;100.00
4972;BME280;2501;51.214;6.768;2022-09-13T03:34:07;100412.97;;;18.20;100.00
4972;BME280;2501;51.214;6.768;2022-09-13T03:36:42;100402.25;;;18.18;100.00
4972;BME280;2501;51.214;6.768;2022-09-13T03:39:22;100395.69;;;18.09;100.00
4972;BME280;2501;51.214;6.768;2022-09-13T03:41:54;100381.84;;;18.18;100.00
4972;BME280;2501;51.214;6.768;2022-09-13T03:44:28;100390.66;;;18.16;100.00
4972;BME280;2501;51.214;6.768;2022-09-13T03:47:00;100393.16;;;18.14;100.00
4972;BME280;2501;51.214;6.768;2022-09-13T03:49:31;100390.00;;;18.12;100.00
4972;BME280;2501;51.214;6.768;2022-09-13T03:52:03;100384.75;;;18.14;100.00
4972;BME280;2501;51.214;6.768;2022-09-13T03:54:35;100375.31;;;18.08;100.00
4972;BME280;2501;51.214;6.768;2022-09-13T03:57:10;100384.06;;;18.10;100.00
4972;BME280;2501;51.214;6.768;2022-09-13T03:59:42;100370.16;;;18.19;100.00
4972;BME280;2501;51.214;6.768;2022-09-13T04:02:12;100373.75;;;18.20;100.00
4972;BME280;2501;51.214;6.768;2022-09-13T04:04:42;100367.16;;;18.14;100.00
4972;BME280;2501;51.214;6.768;2022-09-13T04:07:15;100366.69;;;18.15;100.00
4972;BME280;2501;51.214;6.768;2022-09-13T04:09:44;100371.53;;;18.15;100.00
4972;BME280;2501;51.214;6.768;2022-09-13T04:12:13;100366.03;;;18.11;100.00
4972;BME280;2501;51.214;6.768;2022-09-13T04:14:42;100361.19;;;18.12;100.00
4972;BME280;2501;51.214;6.768;2022-09-13T04:17:11;100364.44;;;18.10;100.00
4972;BME280;2501;51.214;6.768;2022-09-13T04:19:40;100368.16;;;18.07;100.00
4972;BME280;2501;51.214;6.768;2022-09-13T04:22:09;100373.19;;;18.12;100.00
4972;BME280;2501;51.214;6.768;2022-09-13T04:24:40;100373.84;;;18.04;100.00
4972;BME280;2501;51.214;6.768;2022-09-13T04:27:09;100368.25;;;18.16;100.00
4972;BME280;2501;51.214;6.768;2022-09-13T04:29:37;100372.38;;;18.12;100.00
4972;BME280;2501;51.214;6.768;2022-09-13T04:32:05;100377.31;;;18.08;100.00
4972;BME280;2501;51.214;6.768;2022-09-13T04:34:35;100375.56;;;18.14;100.00
4972;BME280;2501;51.214;6.768;2022-09-13T04:37:03;100377.88;;;18.15;100.00
4972;BME280;2501;51.214;6.768;2022-09-13T04:39:32;100393.53;;;18.00;100.00
4972;BME280;2501;51.214;6.768;2022-09-13T04:42:04;100385.81;;;18.04;100.00
4972;BME280;2501;51.214;6.768;2022-09-13T04:44:33;100389.31;;;18.08;100.00
4972;BME280;2501;51.214;6.768;2022-09-13T04:47:01;100387.09;;;18.03;100.00
4972;BME280;2501;51.214;6.768;2022-09-13T04:49:29;100384.34;;;17.87;100.00
4972;BME280;2501;51.214;6.768;2022-09-13T04:51:58;100391.31;;;17.95;100.00
4972;BME280;2501;51.214;6.768;2022-09-13T04:54:26;100390.53;;;17.94;100.00
4972;BME280;2501;51.214;6.768;2022-09-13T04:56:55;100385.88;;;17.88;100.00
4972;BME280;2501;51.214;6.768;2022-09-13T04:59:26;100382.81;;;17.99;100.00
4972;BME280;2501;51.214;6.768;2022-09-13T05:01:55;100376.44;;;18.23;100.00
4972;BME280;2501;51.214;6.768;2022-09-13T05:04:23;100378.31;;;18.01;100.00
4972;BME280;2501;51.214;6.768;2022-09-13T05:06:51;100370.66;;;17.89;100.00
4972;BME280;2501;51.214;6.768;2022-09-13T05:09:20;100381.97;;;17.85;100.00
4972;BME280;2501;51.214;6.768;2022-09-13T05:11:48;100392.97;;;17.92;100.00
4972;BME280;2501;51.214;6.768;2022-09-13T05:14:17;100391.38;;;17.79;100.00
4972;BME280;2501;51.214;6.768;2022-09-13T05:16:48;100377.28;;;17.82;100.00
4972;BME280;2501;51.214;6.768;2022-09-13T05:19:16;100374.69;;;17.88;100.00
4972;BME280;2501;51.214;6.768;2022-09-13T05:21:45;100378.75;;;17.87;100.00
4972;BME280;2501;51.214;6.768;2022-09-13T05:24:13;100378.69;;;18.03;100.00
4972;BME280;2501;51.214;6.768;2022-09-13T05:26:42;100376.56;;;18.07;100.00
4972;BME280;2501;51.214;6.768;2022-09-13T05:29:10;100381.47;;;18.03;100.00
4972;BME280;2501;51.214;6.768;2022-09-13T05:31:40;100369.25;;;18.10;100.00
4972;BME280;2501;51.214;6.768;2022-09-13T05:34:13;100382.84;;;18.11;100.00
4972;BME280;2501;51.214;6.768;2022-09-13T05:36:43;100376.09;;;18.09;100.00
4972;BME280;2501;51.214;6.768;2022-09-13T05:39:13;100380.56;;;18.06;100.00
4972;BME280;2501;51.214;6.768;2022-09-13T05:41:42;100376.09;;;18.09;100.00
4972;BME280;2501;51.214;6.768;2022-09-13T05:44:11;100375.44;;;18.17;100.00
4972;BME280;2501;51.214;6.768;2022-09-13T05:46:40;100376.91;;;18.22;100.00
4972;BME280;2501;51.214;6.768;2022-09-13T05:49:13;100380.56;;;18.06;100.00
4972;BME280;2501;51.214;6.768;2022-09-13T05:51:41;100375.88;;;18.16;100.00
4972;BME280;2501;51.214;6.768;2022-09-13T05:54:10;100383.28;;;18.10;100.00
4972;BME280;2501;51.214;6.768;2022-09-13T05:56:39;100377.81;;;18.19;100.00
4972;BME280;2501;51.214;6.768;2022-09-13T05:59:10;100387.88;;;18.16;100.00
4972;BME280;2501;51.214;6.768;2022-09-13T06:01:39;100380.50;;;18.22;100.00
4972;BME280;2501;51.214;6.768;2022-09-13T06:04:08;100385.63;;;18.24;100.00
4972;BME280;2501;51.214;6.768;2022-09-13T06:06:40;100389.94;;;18.41;100.00
4972;BME280;2501;51.214;6.768;2022-09-13T06:09:09;100382.19;;;18.32;100.00
4972;BME280;2501;51.214;6.768;2022-09-13T06:11:38;100386.31;;;18.28;100.00
4972;BME280;2501;51.214;6.768;2022-09-13T06:14:07;100395.66;;;18.37;100.00
4972;BME280;2501;51.214;6.768;2022-09-13T06:16:35;100388.81;;;18.51;100.00
4972;BME280;2501;51.214;6.768;2022-09-13T06:19:04;100394.44;;;18.64;100.00
4972;BME280;2501;51.214;6.768;2022-09-13T06:21:33;100401.28;;;18.50;100.00
4972;BME280;2501;51.214;6.768;2022-09-13T06:24:05;100408.47;;;18.64;100.00
4972;BME280;2501;51.214;6.768;2022-09-13T06:26:33;100406.47;;;18.77;100.00
4972;BME280;2501;51.214;6.768;2022-09-13T06:29:02;100414.53;;;18.75;100.00
4972;BME280;2501;51.214;6.768;2022-09-13T06:31:30;100420.47;;;18.77;100.00
4972;BME280;2501;51.214;6.768;2022-09-13T06:34:00;100415.78;;;18.61;100.00
4972;BME280;2501;51.214;6.768;2022-09-13T06:36:29;100412.84;;;18.65;100.00
4972;BME280;2501;51.214;6.768;2022-09-13T06:38:58;100404.44;;;18.77;100.00
4972;BME280;2501;51.214;6.768;2022-09-13T06:41:29;100408.47;;;18.76;100.00
4972;BME280;2501;51.214;6.768;2022-09-13T06:43:59;100413.72;;;18.74;100.00
4972;BME280;2501;51.214;6.768;2022-09-13T06:46:29;100408.56;;;18.98;100.00
4972;BME280;2501;51.214;6.768;2022-09-13T06:48:59;100406.56;;;18.73;100.00
4972;BME280;2501;51.214;6.768;2022-09-13T06:51:28;100394.31;;;18.93;100.00
4972;BME280;2501;51.214;6.768;2022-09-13T06:53:57;100392.75;;;19.04;100.00
4972;BME280;2501;51.214;6.768;2022-09-13T06:56:32;100397.00;;;19.09;100.00
4972;BME280;2501;51.214;6.768;2022-09-13T06:59:03;100401.81;;;19.21;100.00
4972;BME280;2501;51.214;6.768;2022-09-13T07:01:33;100402.41;;;19.37;100.00
4972;BME280;2501;51.214;6.768;2022-09-13T07:04:03;100404.25;;;19.31;100.00
4972;BME280;2501;51.214;6.768;2022-09-13T07:06:34;100409.19;;;19.27;100.00
4972;BME280;2501;51.214;6.768;2022-09-13T07:09:05;100399.84;;;19.30;100.00
4972;BME280;2501;51.214;6.768;2022-09-13T07:11:38;100400.75;;;19.40;100.00
4972;BME280;2501;51.214;6.768;2022-09-13T07:14:07;100399.53;;;19.28;100.00
4972;BME280;2501;51.214;6.768;2022-09-13T07:16:36;100404.69;;;19.30;100.00
4972;BME280;2501;51.214;6.768;2022-09-13T07:19:06;100409.38;;;19.33;100.00
4972;BME280;2501;51.214;6.768;2022-09-13T07:21:35;100410.41;;;19.39;100.00
4972;BME280;2501;51.214;6.768;2022-09-13T07:24:04;100408.59;;;19.45;100.00
4972;BME280;2501;51.214;6.768;2022-09-13T07:26:36;100417.50;;;19.31;100.00
4972;BME280;2501;51.214;6.768;2022-09-13T07:29:06;100423.50;;;19.55;100.00
4972;BME280;2501;51.214;6.768;2022-09-13T07:31:37;100427.25;;;19.52;100.00
4972;BME280;2501;51.214;6.768;2022-09-13T07:34:09;100426.78;;;19.53;100.00
4972;BME280;2501;51.214;6.768;2022-09-13T07:36:39;100428.56;;;19.60;100.00
4972;BME280;2501;51.214;6.768;2022-09-13T07:39:08;100425.91;;;19.78;100.00
4972;BME280;2501;51.214;6.768;2022-09-13T07:41:39;100445.03;;;19.92;100.00
4972;BME280;2501;51.214;6.768;2022-09-13T07:44:08;100437.28;;;19.96;100.00
4972;BME280;2501;51.214;6.768;2022-09-13T07:46:38;100439.38;;;20.05;100.00
4972;BME280;2501;51.214;6.768;2022-09-13T07:49:08;100449.13;;;20.13;100.00
4972;BME280;2501;51.214;6.768;2022-09-13T07:51:38;100449.16;;;20.00;100.00
4972;BME280;2501;51.214;6.768;2022-09-13T07:54:10;100455.00;;;20.06;100.00
4972;BME280;2501;51.214;6.768;2022-09-13T07:56:42;100460.75;;;20.24;100.00
4972;BME280;2501;51.214;6.768;2022-09-13T07:59:13;100464.56;;;20.30;100.00
4972;BME280;2501;51.214;6.768;2022-09-13T08:01:43;100470.31;;;20.26;100.00
4972;BME280;2501;51.214;6.768;2022-09-13T08:04:14;100471.06;;;20.27;100.00
4972;BME280;2501;51.214;6.768;2022-09-13T08:06:43;100477.47;;;20.27;100.00
4972;BME280;2501;51.214;6.768;2022-09-13T08:09:12;100467.56;;;20.36;100.00
4972;BME280;2501;51.214;6.768;2022-09-13T08:11:45;100473.72;;;20.43;100.00
4972;BME280;2501;51.214;6.768;2022-09-13T08:14:16;100470.50;;;20.32;100.00
4972;BME280;2501;51.214;6.768;2022-09-13T08:16:44;100472.34;;;20.48;100.00
4972;BME280;2501;51.214;6.768;2022-09-13T08:19:15;100471.75;;;20.53;100.00
4972;BME280;2501;51.214;6.768;2022-09-13T08:21:45;100469.94;;;20.68;100.00
4972;BME280;2501;51.214;6.768;2022-09-13T08:24:15;100473.13;;;20.79;100.00
4972;BME280;2501;51.214;6.768;2022-09-13T08:26:47;100466.25;;;20.80;100.00
4972;BME280;2501;51.214;6.768;2022-09-13T08:29:16;100469.53;;;20.78;100.00
4972;BME280;2501;51.214;6.768;2022-09-13T08:31:45;100475.50;;;20.90;100.00
4972;BME280;2501;51.214;6.768;2022-09-13T08:34:16;100487.59;;;20.99;100.00
4972;BME280;2501;51.214;6.768;2022-09-13T08:36:45;100476.53;;;21.05;100.00
4972;BME280;2501;51.214;6.768;2022-09-13T08:39:14;100487.06;;;21.13;100.00
4972;BME280;2501;51.214;6.768;2022-09-13T08:42:09;100478.59;;;21.62;100.00
4972;BME280;2501;51.214;6.768;2022-09-13T08:44:44;100493.63;;;21.78;100.00
4972;BME280;2501;51.214;6.768;2022-09-13T08:47:30;100496.25;;;21.54;100.00
4972;BME280;2501;51.214;6.768;2022-09-13T08:50:10;100505.22;;;21.89;100.00
4972;BME280;2501;51.214;6.768;2022-09-13T08:52:47;100501.97;;;22.17;100.00
4972;BME280;2501;51.214;6.768;2022-09-13T08:55:25;100496.00;;;22.15;100.00
4972;BME280;2501;51.214;6.768;2022-09-13T08:58:03;100499.91;;;22.36;100.00
4972;BME280;2501;51.214;6.768;2022-09-13T09:00:37;100508.50;;;22.51;100.00
4972;BME280;2501;51.214;6.768;2022-09-13T09:03:17;100505.09;;;22.01;100.00
4972;BME280;2501;51.214;6.768;2022-09-13T09:05:49;100507.78;;;22.14;100.00
4972;BME280;2501;51.214;6.768;2022-09-13T09:08:28;100503.16;;;22.71;100.00
4972;BME280;2501;51.214;6.768;2022-09-13T09:11:02;100495.34;;;22.48;100.00
4972;BME280;2501;51.214;6.768;2022-09-13T09:13:39;100500.53;;;22.31;100.00
4972;BME280;2501;51.214;6.768;2022-09-13T09:16:18;100493.31;;;22.57;100.00
4972;BME280;2501;51.214;6.768;2022-09-13T09:18:54;100498.38;;;22.17;100.00
4972;BME280;2501;51.214;6.768;2022-09-13T09:21:27;100504.13;;;22.50;100.00
4972;BME280;2501;51.214;6.768;2022-09-13T09:23:56;100502.94;;;22.93;100.00
4972;BME280;2501;51.214;6.768;2022-09-13T09:26:29;100506.97;;;22.41;100.00
4972;BME280;2501;51.214;6.768;2022-09-13T09:29:08;100500.16;;;22.75;100.00
4972;BME280;2501;51.214;6.768;2022-09-13T09:31:44;100503.75;;;22.93;100.00
4972;BME280;2501;51.214;6.768;2022-09-13T09:34:23;100503.16;;;23.13;100.00
4972;BME280;2501;51.214;6.768;2022-09-13T09:37:03;100502.94;;;23.26;100.00
4972;BME280;2501;51.214;6.768;2022-09-13T09:39:33;100502.03;;;23.52;100.00
4972;BME280;2501;51.214;6.768;2022-09-13T09:42:10;100503.63;;;23.53;100.00
4972;BME280;2501;51.214;6.768;2022-09-13T09:44:47;100505.41;;;23.66;100.00
4972;BME280;2501;51.214;6.768;2022-09-13T09:47:19;100497.72;;;23.42;100.00
4972;BME280;2501;51.214;6.768;2022-09-13T09:49:54;100497.44;;;23.31;100.00
4972;BME280;2501;51.214;6.768;2022-09-13T09:52:42;100502.13;;;23.43;100.00
4972;BME280;2501;51.214;6.768;2022-09-13T09:55:25;100497.25;;;23.35;100.00
4972;BME280;2501;51.214;6.768;2022-09-13T09:57:56;100495.81;;;23.39;100.00
4972;BME280;2501;51.214;6.768;2022-09-13T10:00:30;100488.00;;;23.67;100.00
4972;BME280;2501;51.214;6.768;2022-09-13T10:03:02;100488.88;;;23.73;100.00
4972;BME280;2501;51.214;6.768;2022-09-13T10:05:33;100493.03;;;23.87;100.00
4972;BME280;2501;51.214;6.768;2022-09-13T10:08:04;100494.22;;;23.95;100.00
4972;BME280;2501;51.214;6.768;2022-09-13T10:10:37;100487.03;;;24.09;100.00
4972;BME280;2501;51.214;6.768;2022-09-13T10:13:12;100491.84;;;24.17;100.00
4972;BME280;2501;51.214;6.768;2022-09-13T10:15:54;100490.50;;;24.27;100.00
4972;BME280;2501;51.214;6.768;2022-09-13T10:18:24;100484.75;;;24.22;100.00
4972;BME280;2501;51.214;6.768;2022-09-13T10:21:02;100478.63;;;24.67;100.00
4972;BME280;2501;51.214;6.768;2022-09-13T10:23:31;100479.69;;;24.70;100.00
4972;BME280;2501;51.214;6.768;2022-09-13T10:26:06;100476.66;;;24.73;100.00
4972;BME280;2501;51.214;6.768;2022-09-13T10:28:43;100482.03;;;24.86;100.00
4972;BME280;2501;51.214;6.768;2022-09-13T10:31:16;100487.41;;;24.99;100.00
4972;BME280;2501;51.214;6.768;2022-09-13T10:33:55;100470.69;;;25.01;100.00
4972;BME280;2501;51.214;6.768;2022-09-13T10:36:28;100469.63;;;24.83;100.00
4972;BME280;2501;51.214;6.768;2022-09-13T10:39:00;100478.63;;;24.97;100.00
4972;BME280;2501;51.214;6.768;2022-09-13T10:41:32;100477.06;;;24.81;100.00
4972;BME280;2501;51.214;6.768;2022-09-13T10:44:05;100472.84;;;24.76;100.00
4972;BME280;2501;51.214;6.768;2022-09-13T10:46:50;100465.06;;;24.57;100.00
4972;BME280;2501;51.214;6.768;2022-09-13T10:49:39;100471.09;;;24.79;100.00
4972;BME280;2501;51.214;6.768;2022-09-13T10:52:26;100468.56;;;24.52;100.00
4972;BME280;2501;51.214;6.768;2022-09-13T10:55:14;100467.09;;;25.00;100.00
4972;BME280;2501;51.214;6.768;2022-09-13T10:57:51;100466.72;;;24.92;100.00
4972;BME280;2501;51.214;6.768;2022-09-13T11:00:21;100468.03;;;25.12;100.00
4972;BME280;2501;51.214;6.768;2022-09-13T11:03:13;100470.56;;;25.10;100.00
4972;BME280;2501;51.214;6.768;2022-09-13T11:05:53;100468.00;;;25.47;100.00
4972;BME280;2501;51.214;6.768;2022-09-13T11:08:32;100469.47;;;25.57;100.00
4972;BME280;2501;51.214;6.768;2022-09-13T11:11:13;100462.81;;;25.45;100.00
4972;BME280;2501;51.214;6.768;2022-09-13T11:13:57;100463.06;;;25.07;100.00
4972;BME280;2501;51.214;6.768;2022-09-13T11:16:36;100475.38;;;25.04;100.00
4972;BME280;2501;51.214;6.768;2022-09-13T11:25:24;100457.69;;;25.09;100.00
4972;BME280;2501;51.214;6.768;2022-09-13T11:28:01;100451.69;;;24.57;100.00
4972;BME280;2501;51.214;6.768;2022-09-13T11:30:37;100449.31;;;25.00;100.00
4972;BME280;2501;51.214;6.768;2022-09-13T11:33:24;100441.63;;;24.85;100.00
4972;BME280;2501;51.214;6.768;2022-09-13T11:36:11;100443.59;;;25.14;100.00
4972;BME280;2501;51.214;6.768;2022-09-13T11:38:56;100448.69;;;25.10;100.00
4972;BME280;2501;51.214;6.768;2022-09-13T11:41:38;100439.28;;;25.19;100.00
4972;BME280;2501;51.214;6.768;2022-09-13T11:44:36;100433.06;;;25.35;100.00
4972;BME280;2501;51.214;6.768;2022-09-13T11:47:19;100424.94;;;25.63;100.00
4972;BME280;2501;51.214;6.768;2022-09-13T11:50:02;100428.09;;;25.50;100.00
4972;BME280;2501;51.214;6.768;2022-09-13T11:52:50;100421.16;;;25.92;100.00
4972;BME280;2501;51.214;6.768;2022-09-13T11:55:22;100416.81;;;25.96;100.00
4972;BME280;2501;51.214;6.768;2022-09-13T11:57:56;100413.31;;;25.61;100.00
4972;BME280;2501;51.214;6.768;2022-09-13T12:00:29;100410.03;;;25.48;100.00
4972;BME280;2501;51.214;6.768;2022-09-13T12:03:04;100415.47;;;25.11;100.00
4972;BME280;2501;51.214;6.768;2022-09-13T12:05:41;100421.44;;;24.98;100.00
4972;BME280;2501;51.214;6.768;2022-09-13T12:08:18;100411.41;;;25.17;100.00
4972;BME280;2501;51.214;6.768;2022-09-13T12:10:52;100411.88;;;25.30;100.00
4972;BME280;2501;51.214;6.768;2022-09-13T12:13:25;100418.81;;;25.50;100.00
4972;BME280;2501;51.214;6.768;2022-09-13T12:15:58;100411.88;;;25.51;100.00
4972;BME280;2501;51.214;6.768;2022-09-13T12:18:31;100407.94;;;25.63;100.00
4972;BME280;2501;51.214;6.768;2022-09-13T12:21:05;100405.31;;;25.79;100.00
4972;BME280;2501;51.214;6.768;2022-09-13T12:23:41;100401.13;;;25.75;100.00
4972;BME280;2501;51.214;6.768;2022-09-13T12:26:14;100403.16;;;25.34;100.00
4972;BME280;2501;51.214;6.768;2022-09-13T12:28:48;100411.09;;;25.30;100.00
4972;BME280;2501;51.214;6.768;2022-09-13T12:31:21;100407.69;;;25.26;100.00
4972;BME280;2501;51.214;6.768;2022-09-13T12:33:52;100400.53;;;25.30;100.00
4972;BME280;2501;51.214;6.768;2022-09-13T12:39:47;100399.06;;;25.35;100.00
4972;BME280;2501;51.214;6.768;2022-09-13T12:42:42;100404.28;;;25.22;100.00
4972;BME280;2501;51.214;6.768;2022-09-13T12:45:30;100403.91;;;25.14;100.00
4972;BME280;2501;51.214;6.768;2022-09-13T12:48:28;100401.22;;;25.25;100.00
4972;BME280;2501;51.214;6.768;2022-09-13T12:51:07;100394.28;;;25.26;100.00
4972;BME280;2501;51.214;6.768;2022-09-13T12:54:14;100398.09;;;25.84;100.00
4972;BME280;2501;51.214;6.768;2022-09-13T12:56:57;100395.78;;;26.08;100.00
4972;BME280;2501;51.214;6.768;2022-09-13T12:59:52;100390.25;;;26.19;100.00
4972;BME280;2501;51.214;6.768;2022-09-13T13:02:30;100386.06;;;26.15;100.00
4972;BME280;2501;51.214;6.768;2022-09-13T13:05:04;100390.91;;;25.83;100.00
4972;BME280;2501;51.214;6.768;2022-09-13T13:07:35;100397.41;;;25.89;100.00
4972;BME280;2501;51.214;6.768;2022-09-13T13:10:23;100392.38;;;25.78;100.00
4972;BME280;2501;51.214;6.768;2022-09-13T13:13:09;100393.44;;;25.81;100.00
4972;BME280;2501;51.214;6.768;2022-09-13T13:16:03;100387.53;;;25.59;100.00
4972;BME280;2501;51.214;6.768;2022-09-13T13:18:44;100393.22;;;25.84;100.00
4972;BME280;2501;51.214;6.768;2022-09-13T13:21:32;100390.13;;;26.08;100.00
4972;BME280;2501;51.214;6.768;2022-09-13T13:26:59;100391.69;;;26.35;100.00
4972;BME280;2501;51.214;6.768;2022-09-13T13:29:31;100377.22;;;27.01;100.00
4972;BME280;2501;51.214;6.768;2022-09-13T13:32:10;100372.31;;;27.50;100.00
4972;BME280;2501;51.214;6.768;2022-09-13T13:34:44;100369.44;;;27.44;100.00
4972;BME280;2501;51.214;6.768;2022-09-13T13:37:30;100370.00;;;27.00;100.00
4972;BME280;2501;51.214;6.768;2022-09-13T13:40:18;100372.66;;;26.41;100.00
4972;BME280;2501;51.214;6.768;2022-09-13T13:42:47;100360.91;;;26.96;100.00
4972;BME280;2501;51.214;6.768;2022-09-13T13:45:22;100373.69;;;27.17;100.00
4972;BME280;2501;51.214;6.768;2022-09-13T13:48:08;100367.09;;;27.43;100.00
4972;BME280;2501;51.214;6.768;2022-09-13T13:53:39;100367.69;;;26.36;100.00
4972;BME280;2501;51.214;6.768;2022-09-13T13:56:19;100365.09;;;26.07;100.00
4972;BME280;2501;51.214;6.768;2022-09-13T13:58:51;100366.84;;;26.04;100.00